Time;durP1;ratioP1;P1;durP2;ratioP2;P2;SDS_P1;SDS_P2;PMS_P1;PMS_P2;Temp;Humidity;BMP_temperature;BMP_pressure;BME280_temperature;BME280_humidity;BME280_pressure;Samples;Min_cycle;Max_cycle;Signal;HPM_P1;HPM_P2
2023/09/13 04:39:42;;;;;;;;;;;;;;;11.07;79.72;100389.09;106640;1278;24223;-41
2023/09/13 04:42:10;;;;;;;;;;;;;;;11.17;79.59;100392.22;110070;1275;22542;-49
2023/09/13 04:44:37;;;;;;;;;;;;;;;11.20;79.93;100391.52;110266;1266;22442;-41
2023/09/13 04:47:03;;;;;;;;;;;;;;;11.24;80.62;100391.85;110150;1263;22436;-42
2023/09/13 04:49:30;;;;;;;;;;;;;;;11.32;80.70;100392.20;108936;1276;22498;-41
2023/09/13 04:51:57;;;;;;;;;;;;;;;11.38;80.44;100393.93;107990;1273;23858;-42
2023/09/13 04:54:24;;;;;;;;;;;;;;;11.41;80.53;100394.45;107353;1266;22517;-41
2023/09/13 04:56:52;;;;;;;;;;;;;;;11.46;80.83;100393.58;107924;1266;22521;-42
2023/09/13 04:59:19;;;;;;;;;;;;;;;11.55;80.84;100396.00;109280;1266;23351;-41
2023/09/13 05:01:46;;;;;;;;;;;;;;;11.63;80.80;100392.84;109850;1269;22478;-42
2023/09/13 05:04:13;;;;;;;;;;;;;;;11.76;80.87;100392.80;108914;1273;23301;-41
2023/09/13 05:06:40;;;;;;;;;;;;;;;11.90;80.68;100393.46;109814;1266;22520;-42
2023/09/13 05:09:06;;;;;;;;;;;;;;;12.02;80.70;100393.42;109834;1258;22490;-41
2023/09/13 05:11:33;;;;;;;;;;;;;;;12.15;80.48;100388.64;109737;1276;24312;-41
2023/09/13 05:14:09;;;;;;;;;;;;;;;12.31;80.28;100391.02;108881;1273;22504;-42
2023/09/13 05:16:35;;;;;;;;;;;;;;;12.51;79.90;100392.12;110239;1267;23051;-42
2023/09/13 05:19:02;;;;;;;;;;;;;;;12.70;79.42;100389.71;109967;1270;23397;-52
2023/09/13 05:21:29;;;;;;;;;;;;;;;12.90;79.22;100388.33;110246;1269;22469;-51
2023/09/13 05:23:56;;;;;;;;;;;;;;;13.09;78.62;100386.42;109950;1270;22578;-40
2023/09/13 05:26:22;;;;;;;;;;;;;;;13.28;77.89;100384.00;110062;1266;23237;-49
2023/09/13 05:28:51;;;;;;;;;;;;;;;13.45;77.28;100378.75;109803;1270;22563;-49
2023/09/13 05:31:23;;;;;;;;;;;;;;;13.62;76.76;100378.92;108485;1270;22530;-50
2023/09/13 05:33:55;;;;;;;;;;;;;;;13.80;76.42;100380.46;109724;1270;22522;-50
2023/09/13 05:36:29;;;;;;;;;;;;;;;14.08;76.03;100376.43;109133;1273;22992;-41
2023/09/13 05:39:01;;;;;;;;;;;;;;;14.37;74.77;100377.80;109199;1275;25378;-49
2023/09/13 05:41:27;;;;;;;;;;;;;;;14.53;73.94;100373.56;109816;1269;23840;-48
2023/09/13 05:44:08;;;;;;;;;;;;;;;14.67;73.54;100371.94;109565;1265;22500;-51
2023/09/13 05:46:46;;;;;;;;;;;;;;;14.83;72.88;100373.08;109203;1272;22503;-41
2023/09/13 05:49:14;;;;;;;;;;;;;;;14.99;72.34;100372.31;109250;1269;23725;-41
2023/09/13 05:51:41;;;;;;;;;;;;;;;15.15;71.61;100374.11;109910;1269;22537;-40
2023/09/13 05:54:09;;;;;;;;;;;;;;;15.33;70.92;100372.23;109710;1270;22942;-41
2023/09/13 05:56:36;;;;;;;;;;;;;;;15.51;70.48;100374.00;109674;1273;22551;-42
2023/09/13 05:59:09;;;;;;;;;;;;;;;15.69;69.91;100376.15;109688;1263;22469;-44
2023/09/13 06:01:42;;;;;;;;;;;;;;;15.90;69.32;100374.31;109808;1270;23345;-42
2023/09/13 06:04:09;;;;;;;;;;;;;;;16.11;68.65;100378.45;108913;1269;22514;-41
2023/09/13 06:07:12;;;;;;;;;;;;;;;16.32;67.95;100376.42;109976;1269;23317;-42
2023/09/13 06:10:01;;;;;;;;;;;;;;;16.58;66.77;100374.41;109683;1267;22704;-51
2023/09/13 06:19:25;;;;;;;;;;;;;;;17.29;63.08;100371.09;109847;1269;22566;-42
2023/09/13 06:22:29;;;;;;;;;;;;;;;17.50;62.11;100372.12;109939;1266;22457;-51
2023/09/13 06:26:10;;;;;;;;;;;;;;;17.77;61.75;100371.38;105915;1271;5253026;-50
2023/09/13 06:29:53;;;;;;;;;;;;;;;18.11;60.27;100371.46;109563;1266;22488;-41
2023/09/13 06:33:10;;;;;;;;;;;;;;;18.35;58.93;100370.04;109419;1270;23251;-51
2023/09/13 06:36:31;;;;;;;;;;;;;;;18.61;58.45;100370.98;108494;1270;23296;-51
2023/09/13 06:39:03;;;;;;;;;;;;;;;18.81;58.01;100373.71;108558;1274;22513;-41
2023/09/13 06:41:33;;;;;;;;;;;;;;;18.97;57.64;100373.20;109212;1259;22515;-50
2023/09/13 06:44:01;;;;;;;;;;;;;;;19.14;57.33;100374.04;109329;1267;22492;-42
2023/09/13 06:46:36;;;;;;;;;;;;;;;19.32;56.65;100372.19;109554;1259;23646;-42
2023/09/13 06:49:03;;;;;;;;;;;;;;;19.51;55.23;100374.71;109265;1266;22641;-51
2023/09/13 06:51:32;;;;;;;;;;;;;;;19.68;54.58;100376.59;109932;1265;22767;-51
2023/09/13 06:54:21;;;;;;;;;;;;;;;19.87;53.49;100375.55;110047;1269;23342;-42
2023/09/13 06:56:51;;;;;;;;;;;;;;;20.03;52.69;100379.19;109122;1271;23036;-51
2023/09/13 06:59:24;;;;;;;;;;;;;;;20.19;51.80;100380.90;109793;1267;22502;-50
2023/09/13 07:01:52;;;;;;;;;;;;;;;20.34;50.89;100381.89;109408;1267;22528;-41
2023/09/13 07:04:56;;;;;;;;;;;;;;;20.51;50.65;100383.22;108655;1260;23005;-52
2023/09/13 07:07:42;;;;;;;;;;;;;;;20.75;50.01;100384.39;109326;1272;22724;-43
2023/09/13 07:10:09;;;;;;;;;;;;;;;20.90;50.27;100383.23;109059;1270;22521;-50
2023/09/13 07:12:39;;;;;;;;;;;;;;;21.06;50.01;100378.33;109268;1274;22629;-50
2023/09/13 07:15:09;;;;;;;;;;;;;;;21.21;50.21;100375.36;109135;1273;22956;-42
2023/09/13 07:17:36;;;;;;;;;;;;;;;21.39;50.35;100376.39;109206;1271;24778;-51
2023/09/13 07:20:06;;;;;;;;;;;;;;;21.58;50.01;100375.77;109005;1270;25325;-50
2023/09/13 07:22:39;;;;;;;;;;;;;;;21.76;49.15;100377.05;109373;1272;23264;-50
2023/09/13 07:25:18;;;;;;;;;;;;;;;21.91;48.55;100374.97;109859;1270;22561;-50
2023/09/13 07:27:44;;;;;;;;;;;;;;;22.05;48.15;100374.52;109870;1262;22511;-52
2023/09/13 07:30:12;;;;;;;;;;;;;;;22.17;48.04;100375.58;109854;1268;23432;-50
2023/09/13 07:32:38;;;;;;;;;;;;;;;22.28;47.65;100377.02;109896;1271;22450;-51
2023/09/13 07:35:05;;;;;;;;;;;;;;;22.40;47.74;100378.41;109840;1273;22989;-50
2023/09/13 07:37:33;;;;;;;;;;;;;;;22.55;47.24;100381.60;109830;1271;22532;-48
2023/09/13 07:39:59;;;;;;;;;;;;;;;22.68;47.01;100381.33;109904;1266;22436;-49
2023/09/13 07:42:34;;;;;;;;;;;;;;;22.82;46.76;100376.57;110014;1271;22430;-50
2023/09/13 07:45:01;;;;;;;;;;;;;;;22.96;45.89;100381.60;110078;1266;22450;-51
2023/09/13 07:47:28;;;;;;;;;;;;;;;23.05;45.47;100377.73;109845;1272;23704;-50
2023/09/13 07:49:57;;;;;;;;;;;;;;;23.15;45.24;100375.81;109758;1270;22512;-50
2023/09/13 07:52:24;;;;;;;;;;;;;;;23.24;44.90;100371.62;110042;1268;22438;-51
2023/09/13 07:54:52;;;;;;;;;;;;;;;23.34;44.80;100368.98;110073;1268;22589;-51
2023/09/13 07:57:19;;;;;;;;;;;;;;;23.45;44.38;100370.21;110070;1270;22463;-51
2023/09/13 07:59:46;;;;;;;;;;;;;;;23.54;44.05;100367.94;109978;1271;23225;-51
2023/09/13 08:02:13;;;;;;;;;;;;;;;23.65;44.08;100366.65;109844;1277;22636;-51
2023/09/13 08:04:39;;;;;;;;;;;;;;;23.76;43.60;100362.15;109971;1269;23227;-50
2023/09/13 08:07:07;;;;;;;;;;;;;;;23.87;43.31;100364.76;109510;1268;23820;-43
2023/09/13 08:09:36;;;;;;;;;;;;;;;24.01;42.93;100366.88;108785;1272;23188;-49
2023/09/13 08:12:04;;;;;;;;;;;;;;;24.13;42.78;100362.12;108893;1270;22526;-51
2023/09/13 08:14:35;;;;;;;;;;;;;;;24.25;42.29;100362.14;109027;1271;22528;-43
2023/09/13 08:17:03;;;;;;;;;;;;;;;24.35;42.09;100362.15;109685;1272;22479;-44
2023/09/13 08:19:31;;;;;;;;;;;;;;;24.45;42.05;100364.80;109562;1273;23324;-53
2023/09/13 08:22:04;;;;;;;;;;;;;;;24.56;41.69;100361.30;109230;1271;22982;-43
2023/09/13 08:24:34;;;;;;;;;;;;;;;24.72;41.27;100357.75;109086;1270;22518;-52
2023/09/13 08:27:06;;;;;;;;;;;;;;;24.88;40.36;100356.06;109935;1272;22452;-43
2023/09/13 08:29:40;;;;;;;;;;;;;;;25.05;40.15;100356.89;109875;1270;22510;-44
2023/09/13 08:32:11;;;;;;;;;;;;;;;25.18;39.50;100351.64;109736;1275;23020;-51
2023/09/13 08:34:38;;;;;;;;;;;;;;;25.32;39.07;100345.67;109772;1272;22503;-50
2023/09/13 08:37:11;;;;;;;;;;;;;;;25.43;38.50;100343.88;109823;1267;22503;-50
2023/09/13 08:56:26;;;;;;;;;;;;;;;25.95;37.26;100336.61;109473;1272;22507;-45
2023/09/13 09:11:18;;;;;;;;;;;;;;;26.42;35.09;100317.85;109781;1272;23337;-45
2023/09/13 09:14:31;;;;;;;;;;;;;;;26.49;35.29;100317.77;109429;1272;23387;-50
2023/09/13 09:17:45;;;;;;;;;;;;;;;26.59;35.04;100314.79;109728;1264;22497;-50
2023/09/13 09:20:12;;;;;;;;;;;;;;;26.67;34.53;100316.56;109329;1272;22482;-51
2023/09/13 09:22:41;;;;;;;;;;;;;;;26.72;33.66;100317.66;109841;1272;22438;-51
2023/09/13 09:25:14;;;;;;;;;;;;;;;26.75;33.42;100318.05;109944;1267;23351;-51
2023/09/13 09:27:47;;;;;;;;;;;;;;;26.78;33.24;100316.02;110015;1276;22590;-43
2023/09/13 09:30:15;;;;;;;;;;;;;;;26.79;32.97;100316.14;109931;1275;23061;-44
2023/09/13 09:32:48;;;;;;;;;;;;;;;26.80;32.77;100314.67;109935;1273;22985;-43
2023/09/13 09:35:27;;;;;;;;;;;;;;;26.83;33.01;100309.05;109924;1260;22464;-43
2023/09/13 09:37:54;;;;;;;;;;;;;;;26.91;32.43;100304.92;109956;1272;22997;-43
2023/09/13 09:40:20;;;;;;;;;;;;;;;26.95;31.95;100300.56;109839;1269;22442;-43
2023/09/13 09:42:51;;;;;;;;;;;;;;;26.98;31.78;100295.71;109778;1271;22408;-43
2023/09/13 09:45:17;;;;;;;;;;;;;;;27.00;31.76;100295.92;109959;1270;22451;-43
2023/09/13 09:47:44;;;;;;;;;;;;;;;27.03;31.32;100298.42;109992;1268;23037;-42
2023/09/13 09:50:13;;;;;;;;;;;;;;;27.05;30.23;100297.38;110017;1270;23182;-44
2023/09/13 09:52:39;;;;;;;;;;;;;;;27.03;29.75;100297.88;109917;1265;22439;-42
2023/09/13 09:55:07;;;;;;;;;;;;;;;27.01;29.22;100290.67;109946;1272;23254;-42
2023/09/13 09:57:44;;;;;;;;;;;;;;;26.96;29.12;100289.05;109632;1270;22938;-51
2023/09/13 10:00:11;;;;;;;;;;;;;;;26.92;29.17;100290.23;109772;1265;22517;-51
2023/09/13 10:02:40;;;;;;;;;;;;;;;26.91;29.69;100289.23;110005;1266;22447;-43
2023/09/13 10:05:07;;;;;;;;;;;;;;;26.91;29.51;100289.60;109996;1268;22466;-43
2023/09/13 10:07:54;;;;;;;;;;;;;;;26.91;29.18;100290.65;109752;1268;23242;-43
2023/09/13 10:10:29;;;;;;;;;;;;;;;26.98;29.39;100289.44;110039;1277;22481;-42
2023/09/13 10:12:56;;;;;;;;;;;;;;;27.11;29.25;100286.27;109899;1267;22869;-51
2023/09/13 10:15:26;;;;;;;;;;;;;;;27.25;29.02;100285.08;109697;1270;23452;-51
2023/09/13 10:17:53;;;;;;;;;;;;;;;27.47;28.82;100280.13;109704;1265;22576;-50
2023/09/13 10:20:21;;;;;;;;;;;;;;;27.78;28.63;100280.17;109964;1269;22515;-51
2023/09/13 10:22:49;;;;;;;;;;;;;;;28.08;28.38;100272.24;109897;1270;22486;-53
2023/09/13 10:25:17;;;;;;;;;;;;;;;28.40;28.09;100270.07;109945;1273;23147;-52
2023/09/13 10:27:49;;;;;;;;;;;;;;;28.75;27.87;100264.34;110090;1265;22454;-52
2023/09/13 10:30:30;;;;;;;;;;;;;;;29.23;26.86;100262.47;109768;1270;22499;-43
2023/09/13 10:32:57;;;;;;;;;;;;;;;29.76;26.07;100261.33;109688;1259;22975;-45
2023/09/13 10:35:25;;;;;;;;;;;;;;;30.09;25.47;100263.30;110060;1266;22444;-52
2023/09/13 10:38:23;;;;;;;;;;;;;;;30.38;24.86;100261.82;109963;1270;22960;-43
2023/09/13 10:40:50;;;;;;;;;;;;;;;30.75;24.08;100258.41;109463;1278;22601;-43
2023/09/13 10:43:17;;;;;;;;;;;;;;;31.01;23.89;100258.15;109436;1278;22571;-43
2023/09/13 10:45:44;;;;;;;;;;;;;;;31.31;24.83;100254.86;109421;1281;22498;-46
2023/09/13 10:48:17;;;;;;;;;;;;;;;31.60;23.14;100256.77;109004;1278;22493;-54
2023/09/13 10:50:44;;;;;;;;;;;;;;;31.77;22.25;100254.91;109433;1274;22472;-52
2023/09/13 10:53:14;;;;;;;;;;;;;;;31.75;22.03;100257.02;108336;1283;23386;-50
2023/09/13 10:55:42;;;;;;;;;;;;;;;31.73;21.89;100247.91;108695;1276;23468;-52
2023/09/13 10:58:09;;;;;;;;;;;;;;;31.75;22.35;100243.77;108945;1268;22527;-51
2023/09/13 11:00:36;;;;;;;;;;;;;;;31.94;22.35;100247.16;108400;1271;22859;-41
2023/09/13 11:03:04;;;;;;;;;;;;;;;32.08;22.25;100244.58;109286;1271;22492;-50
2023/09/13 11:05:31;;;;;;;;;;;;;;;32.08;22.72;100240.98;109500;1278;22446;-43
2023/09/13 11:07:58;;;;;;;;;;;;;;;32.00;22.73;100238.44;109457;1274;22971;-42
2023/09/13 11:10:25;;;;;;;;;;;;;;;31.86;22.26;100234.88;109331;1277;22497;-43
2023/09/13 11:12:52;;;;;;;;;;;;;;;31.63;22.72;100234.24;109387;1278;23040;-44
2023/09/13 11:15:23;;;;;;;;;;;;;;;31.36;22.41;100239.44;109511;1277;22448;-42
2023/09/13 11:17:52;;;;;;;;;;;;;;;31.02;22.99;100232.69;109615;1273;23556;-52
2023/09/13 11:20:23;;;;;;;;;;;;;;;30.77;23.22;100230.52;110028;1269;22440;-51
2023/09/13 11:23:19;;;;;;;;;;;;;;;30.60;22.94;100233.40;110087;1270;23138;-51
2023/09/13 11:26:02;;;;;;;;;;;;;;;30.26;23.22;100230.98;109988;1267;22477;-44
2023/09/13 11:28:38;;;;;;;;;;;;;;;30.00;23.27;100228.64;109811;1262;23316;-51
2023/09/13 11:31:07;;;;;;;;;;;;;;;29.75;23.23;100224.79;110068;1266;22457;-51
2023/09/13 11:33:38;;;;;;;;;;;;;;;29.52;24.36;100222.67;109345;1275;23216;-50
2023/09/13 11:36:06;;;;;;;;;;;;;;;29.48;24.62;100222.07;110067;1269;22507;-50
2023/09/13 11:38:36;;;;;;;;;;;;;;;29.53;24.13;100214.50;109425;1270;23318;-51
2023/09/13 11:41:07;;;;;;;;;;;;;;;29.57;24.51;100217.77;109849;1270;22559;-43
2023/09/13 11:43:37;;;;;;;;;;;;;;;29.47;24.02;100218.04;110041;1272;22519;-42
2023/09/13 11:46:31;;;;;;;;;;;;;;;29.22;24.05;100215.33;109188;1270;22497;-44
2023/09/13 11:49:03;;;;;;;;;;;;;;;29.07;24.63;100209.32;108856;1270;24012;-49
2023/09/13 11:51:39;;;;;;;;;;;;;;;28.94;24.50;100216.08;109332;1264;22641;-50
2023/09/13 11:54:23;;;;;;;;;;;;;;;28.80;24.35;100215.38;109593;1272;23370;-43
2023/09/13 11:56:53;;;;;;;;;;;;;;;28.72;24.37;100213.61;109888;1270;22842;-50
2023/09/13 11:59:40;;;;;;;;;;;;;;;28.71;24.40;100210.19;110069;1269;22549;-50
2023/09/13 12:02:08;;;;;;;;;;;;;;;28.71;24.85;100210.34;110024;1265;22456;-51
2023/09/13 12:04:36;;;;;;;;;;;;;;;28.69;24.96;100208.83;109922;1275;22494;-51
2023/09/13 12:07:21;;;;;;;;;;;;;;;28.67;24.80;100205.45;110112;1266;22592;-51
2023/09/13 12:09:57;;;;;;;;;;;;;;;28.64;25.37;100210.13;110090;1272;23297;-51
2023/09/13 12:12:26;;;;;;;;;;;;;;;28.64;25.55;100203.48;110091;1267;22422;-44
2023/09/13 12:15:13;;;;;;;;;;;;;;;28.73;25.47;100204.27;110105;1277;22428;-44
2023/09/13 12:18:00;;;;;;;;;;;;;;;28.81;25.04;100195.34;110150;1275;22480;-43
2023/09/13 12:20:30;;;;;;;;;;;;;;;28.86;24.96;100192.77;110095;1278;22500;-43
2023/09/13 12:22:57;;;;;;;;;;;;;;;28.94;24.88;100185.96;110101;1278;22814;-43
2023/09/13 12:25:25;;;;;;;;;;;;;;;28.99;24.89;100188.04;110086;1278;23074;-43
2023/09/13 12:27:52;;;;;;;;;;;;;;;29.04;25.01;100190.50;110149;1265;23271;-49
2023/09/13 12:30:19;;;;;;;;;;;;;;;29.02;25.18;100193.17;110163;1277;22507;-50
2023/09/13 12:32:48;;;;;;;;;;;;;;;28.97;24.69;100187.00;110208;1267;23349;-51
2023/09/13 12:35:14;;;;;;;;;;;;;;;28.95;24.41;100187.98;110198;1277;22508;-51
2023/09/13 12:37:41;;;;;;;;;;;;;;;28.95;24.28;100189.79;109998;1273;22440;-50
2023/09/13 12:40:14;;;;;;;;;;;;;;;28.98;25.12;100188.17;110183;1277;22499;-51
2023/09/13 12:42:41;;;;;;;;;;;;;;;29.00;24.90;100189.63;110246;1277;22737;-51
2023/09/13 12:45:08;;;;;;;;;;;;;;;28.97;24.73;100187.63;110241;1278;22475;-51
2023/09/13 12:47:37;;;;;;;;;;;;;;;28.98;24.62;100181.66;110037;1278;22442;-51
2023/09/13 12:50:03;;;;;;;;;;;;;;;28.97;24.31;100182.50;110182;1272;23224;-44
2023/09/13 12:52:40;;;;;;;;;;;;;;;28.88;24.55;100182.40;109987;1278;23086;-43
2023/09/13 12:55:07;;;;;;;;;;;;;;;28.81;24.57;100184.05;110039;1271;23324;-43
2023/09/13 12:57:34;;;;;;;;;;;;;;;28.75;24.84;100180.02;109724;1269;22682;-43
2023/09/13 13:00:02;;;;;;;;;;;;;;;28.70;24.97;100185.42;109720;1278;22541;-51
2023/09/13 13:02:29;;;;;;;;;;;;;;;28.69;25.32;100184.08;110244;1278;22445;-43
2023/09/13 13:04:58;;;;;;;;;;;;;;;28.69;25.43;100182.13;110018;1278;22500;-43
2023/09/13 13:07:33;;;;;;;;;;;;;;;28.69;24.92;100180.30;108930;1278;24209;-52
2023/09/13 13:10:04;;;;;;;;;;;;;;;28.79;24.44;100177.70;108733;1278;23432;-43
2023/09/13 13:12:33;;;;;;;;;;;;;;;28.91;24.19;100174.27;110242;1277;23006;-43
2023/09/13 13:15:00;;;;;;;;;;;;;;;29.02;24.48;100176.52;110241;1277;23153;-51
2023/09/13 13:17:31;;;;;;;;;;;;;;;29.14;24.27;100173.20;109654;1278;22497;-51
2023/09/13 13:19:58;;;;;;;;;;;;;;;29.18;24.06;100177.20;109191;1272;22669;-53
2023/09/13 13:22:25;;;;;;;;;;;;;;;29.14;24.12;100170.12;110033;1269;22511;-43
2023/09/13 13:24:52;;;;;;;;;;;;;;;29.11;24.07;100171.81;110079;1278;22570;-50
2023/09/13 13:27:20;;;;;;;;;;;;;;;29.06;24.15;100172.22;108100;1278;22541;-42
2023/09/13 13:29:47;;;;;;;;;;;;;;;28.98;23.93;100169.81;107550;1269;25311;-44
2023/09/13 13:32:14;;;;;;;;;;;;;;;28.92;23.76;100168.69;108752;1278;22698;-51
2023/09/13 13:34:41;;;;;;;;;;;;;;;28.86;23.78;100167.66;109359;1267;22507;-51
2023/09/13 13:37:08;;;;;;;;;;;;;;;28.79;23.91;100167.68;108114;1278;24190;-42
2023/09/13 13:39:35;;;;;;;;;;;;;;;28.71;24.01;100168.34;108101;1269;22533;-40
2023/09/13 13:42:02;;;;;;;;;;;;;;;28.58;23.84;100169.85;107624;1278;25236;-50
2023/09/13 13:44:29;;;;;;;;;;;;;;;28.46;24.07;100168.11;107345;1278;25335;-41
2023/09/13 13:46:56;;;;;;;;;;;;;;;28.39;24.12;100166.29;109415;1278;22507;-50
2023/09/13 13:49:22;;;;;;;;;;;;;;;28.34;24.23;100162.73;108116;1278;22516;-50
2023/09/13 13:51:49;;;;;;;;;;;;;;;28.33;24.57;100162.45;107400;1278;22494;-41
2023/09/13 13:54:16;;;;;;;;;;;;;;;28.32;24.36;100162.69;107558;1267;22510;-43
2023/09/13 13:56:43;;;;;;;;;;;;;;;28.32;24.28;100156.08;107125;1278;25564;-42
2023/09/13 13:59:10;;;;;;;;;;;;;;;28.34;24.52;100155.52;107057;1278;26483;-41
2023/09/13 14:01:37;;;;;;;;;;;;;;;28.34;24.78;100158.91;107619;1268;23183;-51
2023/09/13 14:04:04;;;;;;;;;;;;;;;28.33;24.94;100157.20;107144;1278;25421;-44
2023/09/13 14:06:32;;;;;;;;;;;;;;;28.40;25.38;100159.94;107169;1278;22511;-51
2023/09/13 14:09:03;;;;;;;;;;;;;;;28.47;25.10;100157.05;107486;1277;25667;-52
2023/09/13 14:11:30;;;;;;;;;;;;;;;28.74;24.85;100152.59;107481;1275;25450;-42
2023/09/13 14:13:57;;;;;;;;;;;;;;;29.04;24.19;100148.48;107273;1269;22514;-43
2023/09/13 14:16:23;;;;;;;;;;;;;;;29.08;24.08;100152.81;107228;1277;22505;-42
